Detall de PIREP

Printer-friendly versionPDF version

[2012/04/30 13:37:00]
Flight IATA:CT1005
Pilot Number:037
Company ICAO:CAT
Aircraft Type:B752/E
PAX:166
Departing Airport: LIRF
Destination Airport: LGTS
Alternate Airport:LGAV
Online: VATSIM
Route:SIPRO UZ803 TEA UL995 BRD UM603 EDASI

Flight Level:F350
No Slew and time accel
No pause
Crash detect
Detect pilot in Cockpit between each 30 and 45 minutes
13:37 Zero fuel Weight: 177099 Lbs, Fuel Weight: 24978 Lbs
13:37 VATSIM:LIRF 301250Z 17010KT 140V200 CAVOK 23/11 Q1016 NOSIG
13:37 VATSIM:LGTS 301250Z 19011KT 9999 FEW030 28/03 Q1015 NOSIG
13:44 Parking Brakes off
13:55 Take-off
13:55 Take off Weight: 200823 Lbs
13:55 Wind: 189º @ 009 Knots Heading: 164º
13:55 POS N41º 48´ 06´´ E012º 13´ 55´´
13:55 Gear Up: 185 Knots
13:55 Flaps:2 at 186 Knots
13:55 Flaps:1 at 198 Knots
13:55 Flaps:0 at 209 Knots
14:10 Wind:207º@015 Knots Heading: 109º Ground Speed: 464 Knots Altitude 30150 ft
14:12 TOC
14:12 Fuel Weight: 19448 Lb
14:25 Wind:076º@022 Knots Heading: 101º Ground Speed: 468 Knots Altitude 35049 ft
14:40 Wind:315º@014 Knots Heading: 089º Ground Speed: 499 Knots Altitude 35055 ft
14:55 Wind:112º@016 Knots Heading: 097º Ground Speed: 480 Knots Altitude 35068 ft
14:55 TOD
14:55 Fuel Weight: 12675 Lb
15:06 Flaps:1 at 220 Knots
15:10 Wind:188º@014 Knots Heading: 066º Ground Speed: 232 Knots Altitude 3500 ft
15:11 Flaps:2 at 196 Knots
15:11 Flaps:3 at 180 Knots
15:11 Gear Down: 178 Knots
15:12 Flaps:4 at 156 Knots
15:13 Flaps:5 at 148 Knots
15:15 Flaps:6 at 137 Knots
15:16 TouchDown:Rate -184 ft/min Speed: 123 Knots
15:16 VATSIM:LGTS 301450Z 19010KT 9999 FEW030 27/03 Q1014 NOSIG
15:16 Land
15:16 Wind:187º@010 Knots
15:16 Heading: 164º
15:16 Flight Duration: 01:21
15:16 Landing Weight: 187961 Lbs
15:16 POS N40º 30´ 56´´ E022º 58´ 19´´
15:21 Parking brakes on
15:21 Block to Block Duration: 01:37
15:21 Final Fuel: 10304 Lbls
15:21 Spent Fuel: 14673 Lbls
15:21 Flight Length: 449 NM
15:21 TOD Land Length: 31 NM

Exportar CSV

Powered by Drupal - Modified by Danger4k